createdAt,value
2019-05-02T00:01:57.149Z,51.87
2019-05-02T00:06:02.895Z,58.27
2019-05-02T00:10:08.778Z,58.83
2019-05-02T00:14:13.356Z,55.43
2019-05-02T00:18:18.480Z,52.93
2019-05-02T00:22:22.517Z,56.00
2019-05-02T00:26:26.544Z,63.90
2019-05-02T00:30:34.585Z,61.73
2019-05-02T00:34:36.495Z,63.10
2019-05-02T00:38:40.873Z,57.50
2019-05-02T00:42:44.886Z,62.30
2019-05-02T00:46:48.940Z,66.40
2019-05-02T00:50:53.067Z,55.83
2019-05-02T00:54:58.727Z,58.50
2019-05-02T00:59:07.466Z,59.37
2019-05-02T01:03:11.094Z,59.17
2019-05-02T01:07:20.368Z,54.67
2019-05-02T01:11:22.295Z,61.33
2019-05-02T01:15:26.427Z,57.73
2019-05-02T01:19:31.778Z,60.53
2019-05-02T01:23:35.782Z,61.60
2019-05-02T01:27:48.714Z,60.70
2019-05-02T01:32:00.129Z,58.30
2019-05-02T01:36:08.678Z,65.17
2019-05-02T01:40:13.089Z,62.07
2019-05-02T01:44:18.431Z,67.17
2019-05-02T01:48:22.650Z,60.23
2019-05-02T01:52:26.529Z,61.33
2019-05-02T01:56:33.192Z,57.07
2019-05-02T02:00:40.640Z,55.07
2019-05-02T02:04:42.064Z,61.07
2019-05-02T02:08:47.306Z,64.63
2019-05-02T02:13:03.218Z,61.60
2019-05-02T02:16:57.044Z,62.03
2019-05-02T02:21:09.288Z,63.13
2019-05-02T02:25:32.312Z,64.70
2019-05-02T02:29:33.473Z,65.73
2019-05-02T02:33:40.874Z,72.50
2019-05-02T02:37:52.043Z,66.87
2019-05-02T02:41:52.051Z,64.07
2019-05-02T02:46:13.802Z,67.90
2019-05-02T02:50:17.767Z,61.90
2019-05-02T02:54:21.922Z,69.40
2019-05-02T02:58:25.996Z,60.13
2019-05-02T03:02:30.042Z,64.27
2019-05-02T03:06:38.639Z,64.87
2019-05-02T03:10:45.083Z,70.50
2019-05-02T03:14:50.169Z,65.57
2019-05-02T03:18:54.362Z,61.23
2019-05-02T03:22:58.555Z,55.80
2019-05-02T03:27:02.597Z,64.03
2019-05-02T03:31:21.926Z,58.53
2019-05-02T03:35:18.516Z,59.33
2019-05-02T03:39:18.196Z,59.07
2019-05-02T03:43:25.818Z,59.23
2019-05-02T03:47:27.963Z,62.27
2019-05-02T03:51:32.116Z,58.90
2019-05-02T03:55:36.257Z,62.63
2019-05-02T04:04:20.479Z,58.83
2019-05-02T04:08:22.708Z,57.07
2019-05-02T04:12:26.858Z,57.83
2019-05-02T04:16:30.911Z,60.33
2019-05-02T04:20:35.055Z,62.03
2019-05-02T04:24:47.835Z,57.97
2019-05-02T04:28:51.630Z,53.40
2019-05-02T04:32:55.728Z,54.17
2019-05-02T04:37:03.392Z,52.10
2019-05-02T04:41:05.176Z,52.13
2019-05-02T04:45:24.312Z,59.33
2019-05-02T04:49:20.038Z,55.07
2019-05-02T04:53:25.989Z,51.03
2019-05-02T04:57:36.106Z,56.33
2019-05-02T05:01:42.056Z,61.93
2019-05-02T05:05:40.391Z,56.17
2019-05-02T05:09:47.949Z,53.83
2019-05-02T05:13:52.454Z,51.37
2019-05-02T05:17:55.248Z,54.80
2019-05-02T05:22:04.992Z,52.50
2019-05-02T05:26:07.137Z,51.50
2019-05-02T05:30:15.533Z,53.50
2019-05-02T05:34:17.342Z,49.00
2019-05-02T05:38:23.098Z,52.03
2019-05-02T05:42:30.246Z,56.67
2019-05-02T05:46:38.034Z,51.43
2019-05-02T05:50:41.402Z,44.63
2019-05-02T05:54:47.058Z,53.03
2019-05-02T05:58:52.626Z,49.90
2019-05-02T06:03:10.344Z,47.37
2019-05-02T06:07:04.305Z,49.43
2019-05-02T06:11:08.711Z,54.73
2019-05-02T06:15:12.866Z,49.33
2019-05-02T06:19:17.866Z,43.93
2019-05-02T06:23:22.623Z,42.73
2019-05-02T06:27:30.294Z,45.53
2019-05-02T06:31:32.531Z,44.10
2019-05-02T06:35:36.490Z,38.47
2019-05-02T06:39:40.594Z,47.63
2019-05-02T06:43:46.643Z,39.30
2019-05-02T06:47:50.375Z,42.73
2019-05-02T06:51:56.329Z,39.83
2019-05-02T06:56:00.240Z,45.37
2019-05-02T07:00:06.494Z,37.57
2019-05-02T07:04:10.632Z,36.73
2019-05-02T07:08:14.718Z,40.97
2019-05-02T07:12:18.804Z,37.73
2019-05-02T07:16:38.119Z,38.77
2019-05-02T07:20:40.712Z,41.13
2019-05-02T07:24:42.032Z,38.40
2019-05-02T07:28:47.537Z,38.93
2019-05-02T07:32:51.603Z,43.23
2019-05-02T07:36:55.662Z,41.90
2019-05-02T07:40:59.710Z,39.57
2019-05-02T07:45:04.296Z,35.73
2019-05-02T07:49:10.787Z,33.10
2019-05-02T07:53:14.908Z,38.23
2019-05-02T07:57:19.032Z,36.60
2019-05-02T08:01:22.931Z,36.60
2019-05-02T08:05:26.910Z,39.53
2019-05-02T08:09:30.970Z,41.23
2019-05-02T08:13:35.065Z,40.80
2019-05-02T08:17:39.171Z,38.80
2019-05-02T08:21:43.177Z,41.80
2019-05-02T08:25:47.127Z,35.40
2019-05-02T08:29:51.695Z,37.83
2019-05-02T08:33:55.871Z,36.00
2019-05-02T08:38:00.229Z,42.08
2019-05-02T08:42:04.688Z,38.35
2019-05-02T08:46:09.336Z,36.55
2019-05-02T08:50:14.735Z,30.37
2019-05-02T08:54:18.970Z,32.63
2019-05-02T08:58:23.152Z,30.43
2019-05-02T09:02:27.545Z,31.68
2019-05-02T09:06:33.166Z,32.67
2019-05-02T09:10:42.117Z,29.63
2019-05-02T09:14:43.155Z,33.78
2019-05-02T09:18:53.343Z,32.17
2019-05-02T09:22:55.991Z,31.05
2019-05-02T09:26:59.164Z,33.80
2019-05-02T09:31:06.660Z,29.95
2019-05-02T09:35:09.222Z,27.05
2019-05-02T09:39:13.453Z,27.40
2019-05-02T09:43:17.538Z,27.10
2019-05-02T09:47:27.525Z,27.80
2019-05-02T09:51:28.724Z,25.30
2019-05-02T09:55:32.955Z,28.27
2019-05-02T09:59:37.077Z,27.05
2019-05-02T10:03:42.295Z,28.62
2019-05-02T10:07:48.557Z,29.95
2019-05-02T10:11:52.646Z,27.02
2019-05-02T10:15:56.771Z,28.77
2019-05-02T10:20:02.095Z,27.95
2019-05-02T10:24:06.659Z,26.35
2019-05-02T10:28:12.780Z,24.05
2019-05-02T10:32:16.800Z,21.50
2019-05-02T10:36:23.359Z,22.80
2019-05-02T10:40:26.869Z,24.32
2019-05-02T10:44:32.585Z,20.95
2019-05-02T10:48:41.925Z,21.62
2019-05-02T10:52:45.758Z,21.15
2019-05-02T10:56:51.721Z,18.67
2019-05-02T11:00:55.791Z,19.27
2019-05-02T11:05:03.392Z,19.15
2019-05-02T11:09:09.668Z,21.68
2019-05-02T11:13:21.789Z,17.55
2019-05-02T11:17:32.360Z,14.65
2019-05-02T11:21:36.660Z,17.27
2019-05-02T11:25:42.153Z,15.95
2019-05-02T11:29:47.374Z,15.58
2019-05-02T11:33:52.689Z,15.93
2019-05-02T11:37:56.878Z,15.53
2019-05-02T11:42:02.109Z,17.17
2019-05-02T11:46:07.388Z,12.88
2019-05-02T11:50:11.973Z,15.65
2019-05-02T11:54:16.228Z,14.73
2019-05-02T11:58:22.831Z,15.43
2019-05-02T12:02:49.130Z,12.25
2019-05-02T12:07:00.886Z,11.18
2019-05-02T12:10:57.021Z,13.60
2019-05-02T12:15:02.537Z,16.27
2019-05-02T12:19:11.777Z,13.25
2019-05-02T12:23:13.109Z,13.78
2019-05-02T12:27:17.171Z,16.25
2019-05-02T12:31:25.487Z,16.02
2019-05-02T12:35:32.210Z,11.45
2019-05-02T12:39:36.478Z,12.10
2019-05-02T12:43:41.638Z,10.25
2019-05-02T12:47:45.734Z,11.63
2019-05-02T12:51:49.868Z,11.12
2019-05-02T12:55:54.046Z,14.47
2019-05-02T12:59:58.235Z,13.70
2019-05-02T13:04:06.047Z,20.88
2019-05-02T13:08:12.234Z,19.80
2019-05-02T13:12:22.800Z,106.15
2019-05-02T13:16:26.978Z,17.35
2019-05-02T13:20:34.767Z,11.22
2019-05-02T13:24:42.208Z,7.83
2019-05-02T13:28:46.046Z,7.10
2019-05-02T13:32:57.709Z,6.03
2019-05-02T13:36:58.962Z,10.72
2019-05-02T13:41:03.299Z,8.08
2019-05-02T13:45:16.284Z,9.10
2019-05-02T13:49:21.974Z,7.58
2019-05-02T13:53:26.067Z,10.13
2019-05-02T13:57:35.048Z,11.03
2019-05-02T14:01:36.106Z,10.75
2019-05-02T14:05:49.314Z,10.75
2019-05-02T14:09:58.080Z,14.60
2019-05-02T14:13:58.592Z,9.25
2019-05-02T14:18:02.695Z,9.08
2019-05-02T14:22:08.072Z,8.43
2019-05-02T14:26:12.376Z,7.72
2019-05-02T14:30:17.436Z,9.58
2019-05-02T14:34:27.148Z,8.25
2019-05-02T14:38:32.125Z,8.35
2019-05-02T14:42:36.312Z,8.18
2019-05-02T14:46:42.399Z,8.68
2019-05-02T14:50:46.605Z,12.40
2019-05-02T14:54:52.523Z,9.05
2019-05-02T14:58:56.552Z,11.05
2019-05-02T15:03:03.391Z,10.40
2019-05-02T15:07:08.528Z,8.65
2019-05-02T15:11:12.654Z,12.23
2019-05-02T15:15:16.807Z,8.68
2019-05-02T15:19:21.882Z,12.40
2019-05-02T15:23:26.298Z,10.35
2019-05-02T15:27:40.223Z,10.30
2019-05-02T15:31:38.929Z,10.63
2019-05-02T15:35:57.174Z,10.28
2019-05-02T15:44:05.593Z,7.95
2019-05-02T15:48:14.590Z,13.22
2019-05-02T15:52:18.868Z,11.12
2019-05-02T15:56:24.530Z,11.22
2019-05-02T16:00:32.430Z,14.47
2019-05-02T16:04:38.140Z,18.25
2019-05-02T16:08:46.000Z,18.85
2019-05-02T16:12:52.688Z,18.57
2019-05-02T16:16:56.975Z,15.88
2019-05-02T16:21:07.999Z,16.37
2019-05-02T16:25:12.297Z,14.50
2019-05-02T16:29:23.415Z,15.40
2019-05-02T16:33:22.351Z,15.25
2019-05-02T16:37:26.708Z,14.28
2019-05-02T16:41:30.341Z,12.18
2019-05-02T16:45:52.637Z,10.72
2019-05-02T16:50:15.151Z,11.53
2019-05-02T16:54:41.910Z,9.93
2019-05-02T16:58:47.051Z,9.75
2019-05-02T17:02:48.966Z,10.23
2019-05-02T17:06:56.920Z,10.35
2019-05-02T17:11:02.857Z,9.43
2019-05-02T17:15:26.368Z,7.25
2019-05-02T17:19:34.819Z,8.33
2019-05-02T17:23:37.474Z,8.13
2019-05-02T17:27:42.327Z,8.65
2019-05-02T17:31:55.524Z,8.03
2019-05-02T17:35:57.584Z,10.43
2019-05-02T17:40:01.875Z,7.05
2019-05-02T17:44:06.035Z,5.50
2019-05-02T17:48:16.203Z,3.72
2019-05-02T17:52:26.693Z,4.67
2019-05-02T17:56:29.139Z,3.83
2019-05-02T18:00:36.058Z,2.30
2019-05-02T18:04:41.943Z,3.27
2019-05-02T18:08:50.620Z,2.17
2019-05-02T18:12:58.119Z,2.92
2019-05-02T18:16:57.784Z,4.03
2019-05-02T18:21:02.171Z,3.08
2019-05-02T18:25:06.590Z,3.80
2019-05-02T18:29:12.425Z,4.07
2019-05-02T18:33:16.505Z,3.30
2019-05-02T18:37:21.877Z,2.80
2019-05-02T18:41:26.084Z,3.30
2019-05-02T18:45:31.901Z,4.23
2019-05-02T18:49:36.073Z,3.77
2019-05-02T18:53:42.236Z,4.43
2019-05-02T18:57:46.009Z,4.90
2019-05-02T19:01:52.718Z,4.27
2019-05-02T19:05:57.357Z,4.53
2019-05-02T19:10:04.250Z,3.83
2019-05-02T19:14:11.634Z,3.60
2019-05-02T19:18:18.101Z,3.83
2019-05-02T19:22:22.448Z,3.30
2019-05-02T19:26:26.484Z,4.07
2019-05-02T19:30:32.624Z,4.27
2019-05-02T19:34:36.848Z,4.50
2019-05-02T19:38:42.806Z,4.63
2019-05-02T19:42:47.330Z,4.13
2019-05-02T19:46:51.995Z,3.80
2019-05-02T19:50:56.090Z,4.90
2019-05-02T19:55:00.212Z,4.90
2019-05-02T19:59:04.337Z,4.13
2019-05-02T20:03:08.407Z,4.50
2019-05-02T20:07:12.662Z,5.00
2019-05-02T20:11:17.742Z,3.53
2019-05-02T20:15:26.971Z,4.33
2019-05-02T20:19:31.851Z,3.70
2019-05-02T20:23:37.066Z,4.33
2019-05-02T20:27:42.157Z,5.73
2019-05-02T20:31:46.254Z,4.40
2019-05-02T20:35:50.393Z,4.75
2019-05-02T20:39:54.433Z,5.83
2019-05-02T20:43:58.575Z,6.67
2019-05-02T20:48:02.694Z,6.43
2019-05-02T20:52:06.812Z,7.63
2019-05-02T20:56:12.411Z,7.60
2019-05-02T21:00:19.498Z,8.07
2019-05-02T21:04:23.622Z,8.43
2019-05-02T21:08:34.566Z,8.73
2019-05-02T21:12:38.513Z,7.90
2019-05-02T21:16:42.623Z,9.70
2019-05-02T21:20:46.738Z,8.57
2019-05-02T21:24:52.910Z,9.43
2019-05-02T21:28:56.784Z,11.13
2019-05-02T21:33:02.714Z,11.23
2019-05-02T21:37:06.767Z,9.93
2019-05-02T21:41:11.281Z,12.50
2019-05-02T21:45:15.824Z,10.70
2019-05-02T21:49:39.141Z,11.40
2019-05-02T21:53:56.070Z,12.00
2019-05-02T21:57:57.296Z,10.33
2019-05-02T22:02:02.418Z,12.57
2019-05-02T22:06:06.757Z,14.70
2019-05-02T22:10:12.105Z,16.00
2019-05-02T22:14:16.236Z,13.17
2019-05-02T22:18:21.663Z,11.60
2019-05-02T22:22:25.849Z,15.23
2019-05-02T22:26:29.874Z,14.57
2019-05-02T22:30:33.910Z,13.63
2019-05-02T22:34:37.891Z,13.80
2019-05-02T22:38:49.457Z,19.07
2019-05-02T22:42:53.630Z,16.80
2019-05-02T22:46:57.698Z,16.80
2019-05-02T22:51:01.866Z,14.47
2019-05-02T22:55:07.074Z,16.23
2019-05-02T22:59:11.162Z,16.37
2019-05-02T23:03:16.468Z,15.50
2019-05-02T23:07:22.174Z,13.37
2019-05-02T23:11:26.180Z,14.53
2019-05-02T23:15:31.987Z,9.23
2019-05-02T23:19:36.563Z,10.53
2019-05-02T23:23:41.775Z,9.90
2019-05-02T23:27:51.861Z,10.13
2019-05-02T23:31:55.955Z,8.60
2019-05-02T23:36:01.917Z,10.63
2019-05-02T23:40:05.761Z,7.90
2019-05-02T23:44:12.077Z,8.03
2019-05-02T23:48:15.718Z,9.70
2019-05-02T23:52:19.697Z,9.87
2019-05-02T23:56:24.819Z,9.77
